createdAt,value
2018-08-09T10:29:26.380Z,65.27
2018-08-09T10:31:54.469Z,66.07
2018-08-09T10:34:22.540Z,66.74
2018-08-09T10:36:50.606Z,67.13
2018-08-09T10:39:18.826Z,66.86
2018-08-09T10:41:47.060Z,65.80
2018-08-09T10:44:15.216Z,64.96
2018-08-09T10:46:50.600Z,64.18
2018-08-09T10:49:18.876Z,63.90
2018-08-09T10:51:47.912Z,62.97
2018-08-09T10:54:16.111Z,61.33
2018-08-09T10:56:44.238Z,62.03
2018-08-09T10:59:12.679Z,60.76
2018-08-09T11:01:41.330Z,59.87
2018-08-09T11:04:09.480Z,60.24
2018-08-09T11:06:37.619Z,59.91
2018-08-09T11:09:08.836Z,58.01
2018-08-09T11:11:37.090Z,59.04
2018-08-09T11:14:05.210Z,59.42
2018-08-09T11:16:33.328Z,58.56
2018-08-09T11:19:01.488Z,58.33
2018-08-09T11:21:29.579Z,57.58
2018-08-09T11:23:57.676Z,58.67
2018-08-09T11:26:25.785Z,57.57
2018-08-09T11:28:53.915Z,54.71
2018-08-09T11:31:22.022Z,54.70
2018-08-09T11:33:50.239Z,54.42
2018-08-09T11:36:18.340Z,53.95
2018-08-09T11:38:46.451Z,52.27
2018-08-09T11:41:14.589Z,53.12
2018-08-09T11:43:42.688Z,51.85
2018-08-09T11:46:10.819Z,51.35
2018-08-09T11:48:38.931Z,51.03
2018-08-09T11:51:07.150Z,51.43
2018-08-09T11:53:35.256Z,51.44
2018-08-09T11:56:03.414Z,50.82
2018-08-09T11:58:31.525Z,50.76
2018-08-09T12:00:59.680Z,49.06
2018-08-09T12:03:27.924Z,48.79
2018-08-09T12:05:56.050Z,48.83
2018-08-09T12:08:24.179Z,49.85
2018-08-09T12:10:52.301Z,49.36
2018-08-09T12:13:20.541Z,47.87
2018-08-09T12:15:48.630Z,47.60
2018-08-09T12:18:16.712Z,47.04
2018-08-09T12:20:44.893Z,46.17
2018-08-09T12:23:12.956Z,46.06
2018-08-09T12:25:41.154Z,46.44
2018-08-09T12:28:09.251Z,46.14
2018-08-09T12:30:37.546Z,46.22
2018-08-09T12:33:05.794Z,46.41
2018-08-09T12:35:33.852Z,45.89
2018-08-09T12:38:01.985Z,47.27
2018-08-09T12:40:30.059Z,45.74
2018-08-09T12:42:58.167Z,47.11
2018-08-09T12:45:26.854Z,47.49
2018-08-09T12:47:55.216Z,46.63
2018-08-09T12:50:23.803Z,46.02
2018-08-09T12:52:52.073Z,46.12
2018-08-09T12:55:20.335Z,45.71
2018-08-09T12:57:48.435Z,45.95
2018-08-09T13:00:16.657Z,45.47
2018-08-09T13:02:45.384Z,45.29
2018-08-09T13:05:13.897Z,45.28
2018-08-09T13:07:43.035Z,45.01
2018-08-09T13:10:12.440Z,45.52
2018-08-09T13:12:41.767Z,45.17
2018-08-09T13:15:12.168Z,44.76
2018-08-09T13:17:40.560Z,44.48
2018-08-09T13:20:16.033Z,44.49
2018-08-09T13:22:44.421Z,43.90
2018-08-09T13:25:13.746Z,43.61
2018-08-09T13:27:41.828Z,44.32
2018-08-09T13:30:12.936Z,43.45
2018-08-09T13:32:41.896Z,43.46
2018-08-09T13:35:10.391Z,42.72
2018-08-09T13:37:38.507Z,42.78
2018-08-09T13:40:07.979Z,42.88
2018-08-09T13:42:36.126Z,42.06
2018-08-09T13:45:04.773Z,42.34
2018-08-09T13:47:32.861Z,41.67
2018-08-09T13:50:01.444Z,41.68
2018-08-09T13:52:29.532Z,41.26
2018-08-09T13:54:57.760Z,41.58
2018-08-09T13:57:27.254Z,41.10
2018-08-09T13:59:55.342Z,41.37
2018-08-09T14:02:23.412Z,41.33
2018-08-09T14:04:53.460Z,40.82
2018-08-09T14:07:21.541Z,40.46
2018-08-09T14:09:49.672Z,40.67
2018-08-09T14:12:17.821Z,40.31
2018-08-09T14:14:45.920Z,39.64
2018-08-09T14:17:14.064Z,40.36
2018-08-09T14:19:42.163Z,38.68
2018-08-09T14:22:10.265Z,38.86
2018-08-09T14:24:38.545Z,39.17
2018-08-09T14:27:08.777Z,37.73
2018-08-09T14:29:36.868Z,37.99
2018-08-09T14:32:04.981Z,36.51
2018-08-09T14:34:33.259Z,35.65
2018-08-09T14:37:01.337Z,35.84
2018-08-09T14:39:29.436Z,35.47
2018-08-09T14:41:57.607Z,35.07
2018-08-09T14:44:25.780Z,35.68
2018-08-09T14:46:53.888Z,35.37
2018-08-09T14:49:22.005Z,35.04
2018-08-09T14:51:50.196Z,35.90
2018-08-09T14:54:18.291Z,36.12
2018-08-09T14:56:46.377Z,35.82
2018-08-09T14:59:14.468Z,38.58
2018-08-09T15:01:42.559Z,46.90
2018-08-09T15:04:10.728Z,52.52
2018-08-09T15:06:38.843Z,59.12
2018-08-09T15:09:08.679Z,64.43
2018-08-09T15:11:37.540Z,66.57
2018-08-09T15:14:08.007Z,68.35
2018-08-09T15:16:39.282Z,70.46
2018-08-09T15:19:08.267Z,71.54
2018-08-09T15:21:36.410Z,72.19
2018-08-09T15:24:04.486Z,73.78
2018-08-09T15:26:32.754Z,74.79
2018-08-09T15:29:00.888Z,74.41
2018-08-09T15:31:29.019Z,75.15
2018-08-09T15:33:57.326Z,76.70
2018-08-09T15:36:25.391Z,77.49
2018-08-09T15:38:53.531Z,78.41
2018-08-09T15:41:21.631Z,78.49
2018-08-09T15:43:49.803Z,77.56
2018-08-09T15:46:17.875Z,77.68
2018-08-09T15:48:46.175Z,78.28
2018-08-09T15:51:14.261Z,77.66
2018-08-09T15:53:43.592Z,78.62
2018-08-09T15:56:12.954Z,78.22
2018-08-09T15:58:41.167Z,79.36
2018-08-09T16:01:10.341Z,78.05
2018-08-09T16:03:40.938Z,77.01
2018-08-09T16:06:09.018Z,77.58
2018-08-09T16:08:39.140Z,77.59
2018-08-09T16:11:07.497Z,77.70
2018-08-09T16:13:35.637Z,76.78
2018-08-09T16:16:04.471Z,75.77
2018-08-09T16:18:36.068Z,76.03
2018-08-09T16:21:05.804Z,76.01
2018-08-09T16:23:33.924Z,75.65
2018-08-09T16:26:03.506Z,74.94
2018-08-09T16:28:31.634Z,74.64
2018-08-09T16:31:01.972Z,73.00
2018-08-09T16:33:30.056Z,73.70
2018-08-09T16:35:59.880Z,72.92
2018-08-09T16:38:27.931Z,71.68
2018-08-09T16:40:56.029Z,72.43
2018-08-09T16:43:24.112Z,72.10
2018-08-09T16:45:55.074Z,72.28
2018-08-09T16:48:24.471Z,70.91
2018-08-09T16:50:55.073Z,70.31
2018-08-09T16:53:23.111Z,70.11
2018-08-09T16:55:51.467Z,69.65
2018-08-09T16:58:19.572Z,68.87
2018-08-09T17:00:49.100Z,69.19
2018-08-09T17:03:17.231Z,70.23
2018-08-09T17:05:45.258Z,69.89
2018-08-09T17:08:15.338Z,69.42
2018-08-09T17:10:43.496Z,68.58
2018-08-09T17:13:12.648Z,69.12
2018-08-09T17:15:40.784Z,68.59
2018-08-09T17:18:08.881Z,68.68
2018-08-09T17:23:16.590Z,68.70
2018-08-09T17:25:44.773Z,68.80
2018-08-09T17:28:13.902Z,69.12
2018-08-09T17:30:42.004Z,69.10
2018-08-09T17:33:13.674Z,68.02
2018-08-09T17:35:41.727Z,68.91
2018-08-09T17:38:09.779Z,68.38
2018-08-09T17:40:40.617Z,69.09
2018-08-09T17:43:09.664Z,68.26
2018-08-09T17:45:38.692Z,68.20
2018-08-09T17:48:07.259Z,68.19
2018-08-09T17:50:35.351Z,68.64
2018-08-09T17:53:04.067Z,67.92
2018-08-09T17:55:32.576Z,67.69
2018-08-09T17:58:01.593Z,67.18
2018-08-09T18:00:31.590Z,68.11
2018-08-09T18:02:59.695Z,67.47
2018-08-09T18:05:27.847Z,68.28
2018-08-09T18:07:56.930Z,67.30
2018-08-09T18:10:30.246Z,67.85
2018-08-09T18:12:58.459Z,67.62
2018-08-09T18:15:27.679Z,68.42
2018-08-09T18:17:56.688Z,67.75
2018-08-09T18:20:28.096Z,67.56
2018-08-09T18:22:58.837Z,68.19
2018-08-09T18:25:27.762Z,68.09
2018-08-09T18:27:55.872Z,67.22
2018-08-09T18:30:23.973Z,67.18
2018-08-09T18:32:54.803Z,67.63
2018-08-09T18:35:22.900Z,67.94
2018-08-09T18:37:51.012Z,67.11
2018-08-09T18:40:23.403Z,67.35
2018-08-09T18:42:52.007Z,67.27
2018-08-09T18:45:20.758Z,67.52
2018-08-09T18:47:48.832Z,67.59
2018-08-09T18:50:22.355Z,66.80
2018-08-09T18:52:52.312Z,67.35
2018-08-09T18:55:21.013Z,66.76
2018-08-09T18:57:49.692Z,67.02
2018-08-09T19:00:22.804Z,66.70
2018-08-09T19:02:51.228Z,67.05
2018-08-09T19:05:22.141Z,66.10
2018-08-09T19:07:50.228Z,67.03
2018-08-09T19:10:24.062Z,66.43
2018-08-09T19:12:52.358Z,65.91
2018-08-09T19:15:20.591Z,66.95
2018-08-09T19:17:48.877Z,66.77
2018-08-09T19:20:22.887Z,66.45
2018-08-09T19:22:51.123Z,65.40
2018-08-09T19:25:19.709Z,64.93
2018-08-09T19:27:53.303Z,65.07
2018-08-09T19:30:37.300Z,65.00
2018-08-09T19:33:07.450Z,65.06
2018-08-09T19:35:35.785Z,64.94
2018-08-09T19:38:03.960Z,64.98
2018-08-09T19:40:32.208Z,65.05
2018-08-09T19:43:00.285Z,64.97
2018-08-09T19:45:28.574Z,65.07
2018-08-09T19:48:00.097Z,65.01
2018-08-09T19:50:28.223Z,64.81
2018-08-09T19:52:56.313Z,64.65
2018-08-09T19:55:31.123Z,65.02
2018-08-09T19:57:59.186Z,64.82
2018-08-09T20:00:29.117Z,64.92
2018-08-09T20:02:57.547Z,65.14
2018-08-09T20:05:25.594Z,65.08
2018-08-09T20:07:54.013Z,64.69
2018-08-09T20:10:22.317Z,64.62
2018-08-09T20:12:51.616Z,65.15
2018-08-09T20:15:22.727Z,65.42
2018-08-09T20:17:59.955Z,64.06
2018-08-09T20:20:31.230Z,64.12
2018-08-09T20:22:59.516Z,63.48
2018-08-09T20:25:28.797Z,62.28
2018-08-09T20:27:57.372Z,62.76
2018-08-09T20:30:27.568Z,62.49
2018-08-09T20:32:55.673Z,62.42
2018-08-09T20:35:24.936Z,63.13
2018-08-09T20:37:53.378Z,63.52
2018-08-09T20:40:22.696Z,63.73
2018-08-09T20:42:51.723Z,64.08
2018-08-09T20:45:20.979Z,63.76
2018-08-09T20:47:49.099Z,64.48
2018-08-09T20:50:18.908Z,64.98
2018-08-09T20:52:50.675Z,65.04
2018-08-09T20:55:18.813Z,65.31
2018-08-09T20:57:47.505Z,65.54
2018-08-09T21:00:19.344Z,65.92
2018-08-09T21:02:48.678Z,66.03
2018-08-09T21:05:27.373Z,65.83
2018-08-09T21:07:56.076Z,65.96
2018-08-09T21:10:24.672Z,65.86
2018-08-09T21:12:52.763Z,65.81
2018-08-09T21:15:21.242Z,65.76
2018-08-09T21:17:49.302Z,65.43
2018-08-09T21:20:17.420Z,65.31
2018-08-09T21:22:46.823Z,64.79
2018-08-09T21:25:14.912Z,65.16
2018-08-09T21:27:43.299Z,64.12
2018-08-09T21:30:13.967Z,65.02
2018-08-09T21:32:42.060Z,64.63
2018-08-09T21:35:10.674Z,64.66
2018-08-09T21:37:39.327Z,64.36
2018-08-09T21:40:08.674Z,64.72
2018-08-09T21:42:36.739Z,64.29
2018-08-09T21:45:06.771Z,64.28
2018-08-09T21:47:34.853Z,63.68
2018-08-09T21:50:02.943Z,63.64
2018-08-09T21:52:31.119Z,64.04
2018-08-09T21:54:59.193Z,63.81
2018-08-09T21:57:28.672Z,63.79
2018-08-09T21:59:56.754Z,64.17
2018-08-09T22:02:24.920Z,63.79
2018-08-09T22:04:58.255Z,64.13
2018-08-09T22:07:31.784Z,64.32
2018-08-09T22:10:05.160Z,64.21
2018-08-09T22:12:38.510Z,63.58
2018-08-09T22:15:12.033Z,63.48
2018-08-09T22:17:45.371Z,62.99
2018-08-09T22:20:18.792Z,62.97
2018-08-09T22:22:46.878Z,62.13
2018-08-09T22:25:14.916Z,62.43
2018-08-09T22:27:43.003Z,62.49
2018-08-09T22:30:14.128Z,61.70
2018-08-09T22:32:42.198Z,62.12
2018-08-09T22:35:10.274Z,61.71
2018-08-09T22:37:38.398Z,61.67
2018-08-09T22:40:06.480Z,61.37
2018-08-09T22:42:34.575Z,59.87
2018-08-09T22:45:02.628Z,59.81
2018-08-09T22:47:30.732Z,59.82
2018-08-09T22:49:58.803Z,59.19
2018-08-09T22:52:26.885Z,59.77
2018-08-09T22:54:54.951Z,59.09
2018-08-09T22:57:23.090Z,58.87
2018-08-09T22:59:51.215Z,58.91
2018-08-09T23:02:19.302Z,59.38
2018-08-09T23:04:47.424Z,59.12
2018-08-09T23:07:15.499Z,59.19
2018-08-09T23:09:43.564Z,59.98
2018-08-09T23:12:11.642Z,59.84
2018-08-09T23:14:39.993Z,59.54
2018-08-09T23:17:08.080Z,60.71
2018-08-09T23:19:36.144Z,60.39
2018-08-09T23:22:04.219Z,60.99
2018-08-09T23:24:32.302Z,61.09
2018-08-09T23:27:00.694Z,61.58
2018-08-09T23:29:28.814Z,62.11
2018-08-09T23:31:56.908Z,62.00
2018-08-09T23:34:24.992Z,62.54
2018-08-09T23:36:53.072Z,62.70
2018-08-09T23:39:21.143Z,62.81
2018-08-09T23:41:49.248Z,63.28
2018-08-09T23:44:17.373Z,63.70
2018-08-09T23:46:45.703Z,63.83
2018-08-09T23:49:13.759Z,63.76
2018-08-09T23:51:41.899Z,64.18
2018-08-09T23:54:09.997Z,63.98
2018-08-09T23:56:38.043Z,64.13
2018-08-09T23:59:06.113Z,64.07
